Time;durP1;ratioP1;P1;durP2;ratioP2;P2;SDS_P1;SDS_P2;PMS_P1;PMS_P2;Temp;Humidity;BMP_temperature;BMP_pressure;BME280_temperature;BME280_humidity;BME280_pressure;Samples;Min_cycle;Max_cycle;Signal;HPM_P1;HPM_P2
2023/05/28 00:02:37;;;;;;;10.77;6.10;;;;;;;;;;5004868;28;20089;-85
2023/05/28 00:05:21;;;;;;;11.35;5.82;;;;;;;;;;5004493;28;20070;-86
2023/05/28 00:08:00;;;;;;;8.32;5.53;;;;;;;;;;5006475;28;20055;-87
2023/05/28 00:10:45;;;;;;;8.65;5.35;;;;;;;;;;5015146;28;20060;-85
2023/05/28 00:13:36;;;;;;;12.63;6.18;;;;;;;;;;5007645;28;20082;-86
2023/05/28 00:16:40;;;;;;;11.60;5.38;;;;;;;;;;5004221;28;20038;-86
2023/05/28 00:23:04;;;;;;;7.93;5.25;;;;;;;;;;4997696;28;20050;-85
2023/05/28 00:26:01;;;;;;;10.25;5.40;;;;;;;;;;4985235;28;20046;-85
2023/05/28 00:29:00;;;;;;;14.00;5.20;;;;;;;;;;4998085;28;20109;-85
2023/05/28 00:31:29;;;;;;;10.32;5.63;;;;;;;;;;4998672;28;20062;-85
2023/05/28 00:34:07;;;;;;;9.32;5.57;;;;;;;;;;4998319;28;20050;-85
2023/05/28 00:36:51;;;;;;;9.43;5.45;;;;;;;;;;4998632;28;20046;-85
2023/05/28 00:39:23;;;;;;;10.85;5.10;;;;;;;;;;4999124;28;20055;-85
2023/05/28 00:42:02;;;;;;;9.73;5.32;;;;;;;;;;4998984;28;20074;-86
2023/05/28 00:44:32;;;;;;;8.52;5.15;;;;;;;;;;4998881;28;20484;-86
2023/05/28 00:47:20;;;;;;;9.70;5.47;;;;;;;;;;4999817;28;20691;-86
2023/05/28 00:53:23;;;;;;;;;;;;;;;;;;;;;
2023/05/28 00:56:41;;;;;;;;;;;;;;;;;;;;;
2023/05/28 00:59:12;;;;;;;7.05;4.53;;;;;;;;;;5002013;28;20077;-85
2023/05/28 01:05:20;;;;;;;9.90;5.45;;;;;;;;;;4999856;28;20054;-86
2023/05/28 01:08:37;;;;;;;7.88;4.75;;;;;;;;;;4999525;28;20058;-85
2023/05/28 01:11:41;;;;;;;10.68;5.72;;;;;;;;;;4997405;28;20062;-85
2023/05/28 01:14:37;;;;;;;;;;;;;;;;;;4999193;28;20049;-85
2023/05/28 01:20:54;;;;;;;8.27;5.32;;;;;;;;;;4997788;28;20050;-86
2023/05/28 01:23:54;;;;;;;8.20;5.50;;;;;;;;;;4981561;28;20042;-86
2023/05/28 01:26:21;;;;;;;11.02;5.40;;;;;;;;;;4996970;28;20050;-86
2023/05/28 01:28:57;;;;;;;11.48;5.70;;;;;;;;;;4996485;28;20046;-86
2023/05/28 01:31:39;;;;;;;8.48;5.15;;;;;;;;;;4996413;28;20050;-86
2023/05/28 01:34:19;;;;;;;8.38;4.93;;;;;;;;;;4976159;28;20518;-86
2023/05/28 01:37:06;;;;;;;;;;;;;;;;;;;;;
2023/05/28 01:50:58;;;;;;;13.30;6.75;;;;;;;;;;5963507;22;8073296;-86
2023/05/28 01:53:25;;;;;;;9.02;6.05;;;;;;;;;;6264391;22;20030;-87
2023/05/28 01:56:01;;;;;;;12.93;5.47;;;;;;;;;;6290205;22;20042;-87
2023/05/28 01:58:30;;;;;;;10.15;5.82;;;;;;;;;;6263808;22;20484;-87
2023/05/28 02:01:05;;;;;;;8.40;5.32;;;;;;;;;;6265114;22;20346;-87
2023/05/28 02:03:32;;;;;;;7.13;5.32;;;;;;;;;;6264710;22;20472;-87
2023/05/28 02:05:59;;;;;;;7.45;5.40;;;;;;;;;;6263214;22;20023;-87
2023/05/28 02:08:32;;;;;;;10.52;5.65;;;;;;;;;;6264321;22;20019;-87
2023/05/28 02:10:59;;;;;;;11.38;5.63;;;;;;;;;;6263448;22;20031;-88
2023/05/28 02:13:32;;;;;;;9.43;5.63;;;;;;;;;;6263873;22;20035;-88
2023/05/28 02:15:59;;;;;;;9.25;5.30;;;;;;;;;;6264269;22;20516;-87
2023/05/28 02:18:27;;;;;;;8.90;5.57;;;;;;;;;;6264579;22;20012;-87
2023/05/28 02:20:54;;;;;;;14.07;6.05;;;;;;;;;;6265062;22;20016;-87
2023/05/28 02:23:22;;;;;;;14.55;5.95;;;;;;;;;;6265309;22;20030;-87
2023/05/28 02:25:49;;;;;;;14.18;6.00;;;;;;;;;;6265730;22;20015;-87
2023/05/28 02:28:18;;;;;;;9.50;6.20;;;;;;;;;;6280815;22;20026;-87
2023/05/28 02:30:45;;;;;;;12.65;6.28;;;;;;;;;;6264824;22;20335;-87
2023/05/28 02:33:46;;;;;;;12.20;5.88;;;;;;;;;;6262660;22;20015;-88
2023/05/28 02:36:13;;;;;;;11.13;5.57;;;;;;;;;;6262698;22;20077;-87
2023/05/28 02:38:41;;;;;;;9.43;5.75;;;;;;;;;;6259390;22;20476;-87
2023/05/28 02:41:09;;;;;;;11.02;6.05;;;;;;;;;;6258723;22;20509;-87
2023/05/28 02:44:07;;;;;;;8.68;5.32;;;;;;;;;;6259048;22;20020;-87
2023/05/28 02:46:52;;;;;;;10.63;5.57;;;;;;;;;;6259185;22;20399;-87
2023/05/28 02:49:24;;;;;;;9.68;5.75;;;;;;;;;;6257947;22;20314;-86
2023/05/28 02:51:52;;;;;;;10.27;6.00;;;;;;;;;;6252079;22;20024;-87
2023/05/28 02:54:29;;;;;;;8.45;5.57;;;;;;;;;;6256394;22;20020;-87
2023/05/28 02:56:57;;;;;;;9.00;5.60;;;;;;;;;;6252978;22;20023;-87
2023/05/28 02:59:24;;;;;;;12.10;6.18;;;;;;;;;;6253367;22;20016;-87
2023/05/28 03:01:51;;;;;;;10.10;6.18;;;;;;;;;;6253125;22;20019;-87
2023/05/28 03:04:21;;;;;;;11.52;6.35;;;;;;;;;;6279645;22;20019;-87
2023/05/28 03:06:48;;;;;;;9.90;6.28;;;;;;;;;;6253052;22;20385;-87
2023/05/28 03:09:33;;;;;;;9.50;5.80;;;;;;;;;;6253636;22;20020;-87
2023/05/28 03:12:00;;;;;;;9.02;6.07;;;;;;;;;;6253260;22;20024;-87
2023/05/28 03:14:27;;;;;;;7.88;5.38;;;;;;;;;;6253763;22;20020;-87
2023/05/28 03:16:55;;;;;;;8.48;5.68;;;;;;;;;;6253543;22;20027;-87
2023/05/28 03:19:27;;;;;;;12.88;6.22;;;;;;;;;;6253468;22;20022;-87
2023/05/28 03:21:55;;;;;;;8.15;5.95;;;;;;;;;;6253326;22;20046;-87
2023/05/28 03:24:22;;;;;;;13.05;6.30;;;;;;;;;;6252883;22;20015;-87
2023/05/28 03:26:52;;;;;;;11.63;6.70;;;;;;;;;;6253704;22;20035;-87
2023/05/28 03:29:19;;;;;;;7.43;5.68;;;;;;;;;;6252733;22;20023;-87
2023/05/28 03:31:47;;;;;;;9.15;5.80;;;;;;;;;;6253749;22;20027;-87
2023/05/28 03:34:15;;;;;;;12.13;6.43;;;;;;;;;;6253420;22;20424;-87
2023/05/28 03:36:42;;;;;;;14.77;6.70;;;;;;;;;;6253645;22;20047;-87
2023/05/28 03:39:11;;;;;;;11.60;6.55;;;;;;;;;;6253703;22;20020;-87
2023/05/28 03:41:39;;;;;;;9.85;6.22;;;;;;;;;;6254763;22;20011;-87
2023/05/28 03:44:06;;;;;;;12.07;6.47;;;;;;;;;;6253970;22;20074;-87
2023/05/28 03:46:34;;;;;;;11.90;6.35;;;;;;;;;;6254207;22;20366;-87
2023/05/28 03:49:29;;;;;;;8.07;6.75;;;;;;;;;;6251691;22;20019;-88
2023/05/28 03:52:00;;;;;;;9.25;6.50;;;;;;;;;;6220448;23;20027;-87
2023/05/28 03:54:41;;;;;;;11.45;6.18;;;;;;;;;;6221011;23;20020;-88
2023/05/28 03:57:28;;;;;;;11.88;7.13;;;;;;;;;;6221556;23;20028;-88
2023/05/28 04:00:20;;;;;;;10.73;7.50;;;;;;;;;;6212685;23;20507;-88
2023/05/28 04:02:55;;;;;;;13.98;9.45;;;;;;;;;;6220335;23;20027;-87
2023/05/28 04:11:48;;;;;;;10.85;7.05;;;;;;;;;;6154975;23;20029;-88
2023/05/28 04:14:16;;;;;;;8.85;6.32;;;;;;;;;;6130069;23;20056;-88
2023/05/28 04:16:46;;;;;;;11.45;6.63;;;;;;;;;;6133510;23;20013;-86
2023/05/28 04:19:18;;;;;;;11.32;7.03;;;;;;;;;;6136674;23;20018;-86
2023/05/28 04:21:46;;;;;;;10.50;7.27;;;;;;;;;;6140046;23;20401;-86
2023/05/28 04:24:37;;;;;;;8.60;6.40;;;;;;;;;;6140356;23;21194;-86
2023/05/28 04:27:26;;;;;;;11.55;5.35;;;;;;;;;;6140631;23;20071;-86
2023/05/28 04:30:20;;;;;;;12.93;6.00;;;;;;;;;;6235625;23;20047;-86
2023/05/28 04:32:59;;;;;;;10.18;5.97;;;;;;;;;;6231667;23;20063;-86
2023/05/28 04:35:51;;;;;;;8.10;5.53;;;;;;;;;;6212067;23;20020;-86
2023/05/28 04:38:42;;;;;;;8.32;5.82;;;;;;;;;;6232279;23;20035;-86
2023/05/28 04:41:15;;;;;;;11.00;5.25;;;;;;;;;;6231302;23;20046;-87
2023/05/28 04:43:43;;;;;;;7.85;4.78;;;;;;;;;;6259444;23;20031;-86
2023/05/28 04:46:37;;;;;;;9.43;5.53;;;;;;;;;;6238375;23;20051;-87
2023/05/28 05:00:00;;;;;;;6.97;4.65;;;;;;;;;;6250628;23;20020;-86
2023/05/28 05:02:31;;;;;;;6.95;4.30;;;;;;;;;;6223820;23;20047;-87
2023/05/28 05:05:20;;;;;;;7.72;4.22;;;;;;;;;;6223935;23;20013;-86
2023/05/28 05:12:05;;;;;;;4.32;3.80;;;;;;;;;;6254458;23;20015;-87
2023/05/28 05:15:37;;;;;;;7.22;4.10;;;;;;;;;;6033200;23;20016;-86
2023/05/28 05:21:23;;;;;;;4.63;3.40;;;;;;;;;;6257826;23;20094;-87
2023/05/28 05:24:15;;;;;;;7.47;3.72;;;;;;;;;;6231190;23;20074;-87
2023/05/28 05:27:01;;;;;;;5.97;3.72;;;;;;;;;;6260016;23;20027;-88
2023/05/28 05:29:42;;;;;;;8.43;3.45;;;;;;;;;;6200011;23;20025;-82
2023/05/28 05:32:10;;;;;;;5.47;3.03;;;;;;;;;;6185903;23;20051;-83
2023/05/28 05:34:38;;;;;;;14.52;3.88;;;;;;;;;;6186764;23;20021;-83
2023/05/28 05:37:05;;;;;;;5.63;3.30;;;;;;;;;;6186470;23;20357;-83
2023/05/28 05:39:33;;;;;;;13.52;4.13;;;;;;;;;;6174805;23;20017;-82
2023/05/28 05:42:01;;;;;;;4.97;2.88;;;;;;;;;;6154562;23;20451;-83
2023/05/28 05:44:28;;;;;;;6.18;3.10;;;;;;;;;;6154524;23;20017;-83
2023/05/28 05:46:55;;;;;;;4.93;3.20;;;;;;;;;;6155885;23;20104;-83
2023/05/28 05:49:22;;;;;;;6.18;2.70;;;;;;;;;;6156596;23;20029;-83
2023/05/28 05:51:50;;;;;;;6.85;2.90;;;;;;;;;;6155926;23;20025;-82
2023/05/28 05:54:17;;;;;;;5.93;3.05;;;;;;;;;;6154825;23;20033;-82
2023/05/28 05:56:45;;;;;;;7.65;3.33;;;;;;;;;;6154676;23;20088;-82
2023/05/28 05:59:12;;;;;;;8.38;3.30;;;;;;;;;;6155931;23;20072;-83
2023/05/28 06:01:39;;;;;;;9.18;3.55;;;;;;;;;;6154802;23;20026;-83
2023/05/28 06:04:07;;;;;;;8.63;3.42;;;;;;;;;;6154447;23;20092;-83
2023/05/28 06:06:37;;;;;;;12.73;2.90;;;;;;;;;;6154504;23;20072;-83
2023/05/28 06:09:05;;;;;;;6.90;3.10;;;;;;;;;;6154987;23;20025;-83
2023/05/28 06:11:32;;;;;;;6.82;3.05;;;;;;;;;;6154138;23;20420;-83
2023/05/28 06:13:59;;;;;;;10.35;3.88;;;;;;;;;;6153785;23;20029;-83
2023/05/28 06:16:28;;;;;;;9.60;3.22;;;;;;;;;;6155796;23;20025;-83
2023/05/28 06:18:55;;;;;;;6.43;3.22;;;;;;;;;;6155029;23;20452;-83
2023/05/28 06:21:24;;;;;;;4.88;2.80;;;;;;;;;;6157379;23;20022;-83
2023/05/28 06:23:51;;;;;;;19.33;4.13;;;;;;;;;;6154580;23;20371;-83
2023/05/28 06:26:18;;;;;;;11.38;3.22;;;;;;;;;;6155487;23;20477;-83
2023/05/28 06:28:45;;;;;;;16.10;4.57;;;;;;;;;;6155315;23;20025;-83
2023/05/28 06:31:13;;;;;;;7.70;3.60;;;;;;;;;;6131057;23;20378;-83
2023/05/28 06:33:40;;;;;;;10.15;3.75;;;;;;;;;;6130651;23;20033;-83
2023/05/28 06:36:08;;;;;;;10.23;3.63;;;;;;;;;;6132971;23;20072;-84
2023/05/28 06:38:35;;;;;;;9.35;3.38;;;;;;;;;;6131876;23;20029;-83
2023/05/28 06:41:02;;;;;;;8.93;3.25;;;;;;;;;;6157057;23;20113;-83
2023/05/28 06:43:30;;;;;;;8.43;3.05;;;;;;;;;;6131105;23;20018;-83
2023/05/28 06:45:57;;;;;;;5.00;2.78;;;;;;;;;;6131005;23;20026;-83
2023/05/28 06:48:24;;;;;;;7.72;2.90;;;;;;;;;;6131123;23;20017;-83
2023/05/28 06:50:51;;;;;;;5.75;2.75;;;;;;;;;;6131364;23;20072;-84
2023/05/28 06:53:19;;;;;;;5.95;3.03;;;;;;;;;;6131482;23;20471;-83
2023/05/28 06:55:46;;;;;;;8.05;3.15;;;;;;;;;;6131097;23;20076;-83
2023/05/28 06:58:13;;;;;;;8.65;3.58;;;;;;;;;;6131425;23;20521;-83
2023/05/28 07:00:41;;;;;;;9.32;3.20;;;;;;;;;;6156926;23;20325;-83
2023/05/28 07:03:08;;;;;;;12.90;4.10;;;;;;;;;;6131250;23;20394;-83
2023/05/28 07:05:36;;;;;;;36.45;5.85;;;;;;;;;;6130887;23;20019;-83
2023/05/28 07:08:03;;;;;;;28.33;6.25;;;;;;;;;;6159529;23;20022;-84
2023/05/28 07:10:30;;;;;;;35.22;6.50;;;;;;;;;;6158729;23;20022;-83
2023/05/28 07:12:58;;;;;;;23.92;5.40;;;;;;;;;;6131649;23;20529;-83
2023/05/28 07:15:25;;;;;;;30.73;5.20;;;;;;;;;;6132612;23;20467;-84
2023/05/28 07:17:52;;;;;;;25.25;5.75;;;;;;;;;;6131621;23;20084;-83
2023/05/28 07:20:20;;;;;;;14.52;3.97;;;;;;;;;;6132290;23;20021;-84
2023/05/28 07:22:47;;;;;;;10.73;4.10;;;;;;;;;;6158819;23;20018;-83
2023/05/28 07:25:14;;;;;;;6.60;3.25;;;;;;;;;;6131323;23;20532;-83
2023/05/28 07:27:42;;;;;;;12.93;4.00;;;;;;;;;;6131495;23;20044;-84
2023/05/28 07:30:09;;;;;;;8.07;3.65;;;;;;;;;;6143391;23;20025;-84
2023/05/28 07:32:37;;;;;;;11.25;3.35;;;;;;;;;;6157048;23;20022;-84
2023/05/28 07:35:05;;;;;;;10.65;3.60;;;;;;;;;;6157082;23;20025;-83
2023/05/28 07:37:33;;;;;;;5.60;3.22;;;;;;;;;;6156836;23;20080;-84
2023/05/28 07:40:00;;;;;;;6.82;3.03;;;;;;;;;;6156027;23;20072;-83
2023/05/28 07:42:27;;;;;;;9.38;3.28;;;;;;;;;;6158571;23;20018;-84
2023/05/28 07:44:55;;;;;;;5.80;3.45;;;;;;;;;;6157868;23;20022;-83
2023/05/28 07:47:22;;;;;;;5.57;3.20;;;;;;;;;;6155602;23;20021;-84
2023/05/28 07:49:49;;;;;;;6.38;3.00;;;;;;;;;;6155528;23;20025;-83
2023/05/28 07:52:17;;;;;;;5.20;3.28;;;;;;;;;;6156226;23;20022;-83
2023/05/28 07:54:45;;;;;;;4.35;2.38;;;;;;;;;;6156246;23;20026;-83
2023/05/28 07:57:14;;;;;;;9.93;3.58;;;;;;;;;;6155819;23;20025;-84
2023/05/28 07:59:42;;;;;;;7.47;3.08;;;;;;;;;;6155000;23;20040;-83
2023/05/28 08:02:10;;;;;;;4.90;3.20;;;;;;;;;;6156162;23;20529;-82
2023/05/28 08:04:37;;;;;;;4.85;2.75;;;;;;;;;;6155900;23;20057;-82
2023/05/28 08:07:05;;;;;;;8.02;3.00;;;;;;;;;;6157739;23;20025;-83
2023/05/28 08:09:32;;;;;;;5.43;3.00;;;;;;;;;;6157278;23;20021;-81
2023/05/28 08:12:01;;;;;;;4.70;2.75;;;;;;;;;;6155300;23;20021;-82
2023/05/28 08:14:29;;;;;;;5.03;3.00;;;;;;;;;;6155957;23;20021;-83
2023/05/28 08:16:57;;;;;;;3.05;2.58;;;;;;;;;;6157990;23;20027;-83
2023/05/28 08:19:24;;;;;;;4.72;2.92;;;;;;;;;;6157334;23;20386;-83
2023/05/28 08:21:51;;;;;;;2.97;2.65;;;;;;;;;;6156388;23;20026;-83
2023/05/28 08:24:20;;;;;;;3.75;2.58;;;;;;;;;;6155695;23;20022;-84
2023/05/28 08:26:47;;;;;;;5.35;2.30;;;;;;;;;;6155759;23;20032;-82
2023/05/28 08:29:14;;;;;;;5.20;2.63;;;;;;;;;;6155354;23;20466;-83
2023/05/28 08:31:42;;;;;;;8.38;2.80;;;;;;;;;;6155619;23;20093;-82
2023/05/28 08:34:10;;;;;;;3.00;2.28;;;;;;;;;;6155433;23;20022;-82
2023/05/28 08:36:37;;;;;;;5.88;2.90;;;;;;;;;;6155537;23;20021;-81
2023/05/28 08:39:07;;;;;;;5.13;2.40;;;;;;;;;;6156625;23;20025;-82
2023/05/28 08:41:35;;;;;;;4.72;2.10;;;;;;;;;;6157224;23;20021;-79
2023/05/28 08:44:02;;;;;;;3.58;3.28;;;;;;;;;;6155249;23;20028;-82
2023/05/28 08:46:31;;;;;;;4.68;2.25;;;;;;;;;;6155760;23;20021;-80
2023/05/28 08:49:00;;;;;;;4.47;2.30;;;;;;;;;;6155986;23;20025;-83
2023/05/28 08:51:28;;;;;;;3.25;1.92;;;;;;;;;;6155920;23;20057;-84
2023/05/28 08:53:56;;;;;;;4.40;2.30;;;;;;;;;;6157079;23;20528;-83
2023/05/28 08:56:23;;;;;;;2.58;1.90;;;;;;;;;;6158158;23;20021;-83
2023/05/28 08:58:51;;;;;;;3.50;1.55;;;;;;;;;;6157178;23;20554;-82
2023/05/28 09:01:18;;;;;;;3.35;1.90;;;;;;;;;;6155607;23;20021;-83
2023/05/28 09:03:45;;;;;;;1.90;1.70;;;;;;;;;;6155828;23;20028;-84
2023/05/28 09:06:14;;;;;;;4.55;1.95;;;;;;;;;;6157869;23;20021;-84
2023/05/28 09:08:42;;;;;;;2.75;1.85;;;;;;;;;;6157738;23;20309;-80
2023/05/28 09:11:10;;;;;;;2.45;1.95;;;;;;;;;;6158655;23;20076;-82
2023/05/28 09:13:45;;;;;;;3.22;2.08;;;;;;;;;;6157177;23;20025;-82
2023/05/28 09:16:20;;;;;;;1.75;1.65;;;;;;;;;;6155222;23;20366;-83
2023/05/28 09:18:52;;;;;;;6.53;2.75;;;;;;;;;;6155487;23;20390;-83
2023/05/28 09:21:20;;;;;;;2.42;2.22;;;;;;;;;;6156778;23;20339;-84
2023/05/28 09:23:50;;;;;;;4.00;2.08;;;;;;;;;;6154472;23;20029;-83
2023/05/28 09:26:20;;;;;;;2.78;2.10;;;;;;;;;;6155463;23;20024;-83
2023/05/28 09:28:52;;;;;;;3.92;2.13;;;;;;;;;;6155517;23;20354;-83
2023/05/28 09:31:20;;;;;;;3.08;2.03;;;;;;;;;;6130901;23;20505;-81
2023/05/28 09:33:48;;;;;;;2.70;1.80;;;;;;;;;;6155957;23;20362;-81
2023/05/28 09:36:18;;;;;;;4.13;2.10;;;;;;;;;;6131770;23;20026;-82
2023/05/28 09:38:45;;;;;;;2.38;1.95;;;;;;;;;;6157018;23;20026;-82
2023/05/28 09:41:33;;;;;;;6.22;1.80;;;;;;;;;;6132168;23;20017;-83
2023/05/28 09:44:02;;;;;;;4.78;2.17;;;;;;;;;;6134165;23;20021;-82
2023/05/28 09:46:33;;;;;;;2.22;1.95;;;;;;;;;;6132444;23;20351;-81
2023/05/28 09:49:01;;;;;;;2.95;1.88;;;;;;;;;;6132703;23;20022;-82
2023/05/28 09:51:29;;;;;;;7.78;2.33;;;;;;;;;;6158293;23;20029;-82
2023/05/28 09:53:57;;;;;;;3.08;2.03;;;;;;;;;;6131752;23;20025;-83
2023/05/28 09:56:29;;;;;;;4.18;1.90;;;;;;;;;;6132407;23;20034;-83
2023/05/28 09:58:57;;;;;;;3.13;1.70;;;;;;;;;;6142018;23;20362;-82
2023/05/28 10:01:32;;;;;;;2.83;2.10;;;;;;;;;;6147363;23;20017;-82
2023/05/28 10:04:05;;;;;;;4.55;2.20;;;;;;;;;;6153341;23;20029;-83
2023/05/28 10:06:33;;;;;;;4.32;2.10;;;;;;;;;;6177181;23;20443;-82
2023/05/28 10:09:02;;;;;;;4.35;1.90;;;;;;;;;;6174476;23;20025;-83
2023/05/28 10:11:31;;;;;;;1.95;1.85;;;;;;;;;;6175641;23;20406;-83
2023/05/28 10:13:59;;;;;;;2.42;2.20;;;;;;;;;;6142630;23;20033;-84
2023/05/28 10:16:26;;;;;;;3.95;2.35;;;;;;;;;;6140046;23;20029;-84
2023/05/28 10:18:56;;;;;;;3.38;2.20;;;;;;;;;;6143757;23;20402;-83
2023/05/28 10:21:24;;;;;;;2.13;1.95;;;;;;;;;;6139139;23;20021;-82
2023/05/28 10:23:52;;;;;;;2.67;1.90;;;;;;;;;;6169074;23;20017;-83
2023/05/28 10:26:21;;;;;;;2.33;1.90;;;;;;;;;;6165234;23;20028;-84
2023/05/28 10:28:55;;;;;;;5.60;2.38;;;;;;;;;;6134250;23;20021;-81
2023/05/28 10:31:23;;;;;;;4.50;2.40;;;;;;;;;;6137054;23;20028;-79
2023/05/28 10:33:50;;;;;;;5.10;2.58;;;;;;;;;;6163862;23;20057;-80
2023/05/28 10:36:17;;;;;;;4.18;2.17;;;;;;;;;;6136758;23;20033;-79
2023/05/28 10:38:54;;;;;;;4.15;2.30;;;;;;;;;;6135168;23;20022;-81
2023/05/28 10:41:22;;;;;;;4.97;2.50;;;;;;;;;;6137607;23;20072;-79
2023/05/28 10:43:50;;;;;;;4.38;2.95;;;;;;;;;;6159858;23;20443;-82
2023/05/28 10:46:18;;;;;;;3.47;2.20;;;;;;;;;;6162697;23;20036;-81
2023/05/28 10:49:04;;;;;;;5.18;2.78;;;;;;;;;;6163350;23;20017;-84
2023/05/28 10:51:50;;;;;;;4.90;2.65;;;;;;;;;;6161699;23;20032;-83
2023/05/28 10:54:21;;;;;;;4.50;2.20;;;;;;;;;;6159681;23;20533;-83
2023/05/28 10:57:08;;;;;;;8.05;2.78;;;;;;;;;;6135836;23;20022;-82
2023/05/28 10:59:41;;;;;;;2.60;2.38;;;;;;;;;;6137250;23;20021;-83
2023/05/28 11:02:08;;;;;;;3.40;2.20;;;;;;;;;;6143218;23;20014;-83
2023/05/28 11:04:36;;;;;;;6.88;3.10;;;;;;;;;;6138149;23;20395;-82
2023/05/28 11:07:05;;;;;;;3.45;2.30;;;;;;;;;;6141887;23;20018;-83
2023/05/28 11:09:33;;;;;;;3.78;2.65;;;;;;;;;;6141578;23;20017;-84
2023/05/28 11:12:03;;;;;;;3.50;2.60;;;;;;;;;;6138573;23;20022;-84
2023/05/28 11:14:34;;;;;;;3.95;2.42;;;;;;;;;;6137323;23;20041;-83
2023/05/28 11:17:02;;;;;;;3.05;2.15;;;;;;;;;;6164036;23;20029;-83
2023/05/28 11:19:29;;;;;;;4.75;3.15;;;;;;;;;;6162641;23;20032;-83
2023/05/28 11:21:56;;;;;;;4.43;2.33;;;;;;;;;;6137980;23;20018;-83
2023/05/28 11:24:24;;;;;;;3.70;2.92;;;;;;;;;;6141318;23;20081;-84
2023/05/28 11:26:54;;;;;;;5.65;2.25;;;;;;;;;;6139092;23;20022;-81
2023/05/28 11:29:22;;;;;;;4.40;2.47;;;;;;;;;;6142541;22;20005;-79
2023/05/28 11:31:49;;;;;;;5.10;2.42;;;;;;;;;;6216957;23;20067;-83
2023/05/28 11:34:20;;;;;;;4.28;2.17;;;;;;;;;;6217597;23;20017;-82
2023/05/28 11:36:47;;;;;;;2.38;2.10;;;;;;;;;;6242960;23;20016;-81
2023/05/28 11:39:14;;;;;;;5.00;2.05;;;;;;;;;;6244060;23;20020;-82
2023/05/28 11:41:42;;;;;;;2.38;1.98;;;;;;;;;;6246178;23;20028;-81
2023/05/28 11:44:20;;;;;;;3.83;2.30;;;;;;;;;;6247151;23;20023;-82
2023/05/28 11:46:55;;;;;;;4.40;2.42;;;;;;;;;;6247926;23;20020;-82
2023/05/28 11:49:23;;;;;;;2.72;2.42;;;;;;;;;;6224502;23;20036;-81
2023/05/28 11:51:52;;;;;;;3.75;1.90;;;;;;;;;;6224053;23;20012;-83
2023/05/28 11:54:19;;;;;;;4.75;2.45;;;;;;;;;;6246938;23;20095;-81
2023/05/28 11:56:53;;;;;;;3.80;2.50;;;;;;;;;;6246819;23;20016;-81
2023/05/28 11:59:26;;;;;;;3.58;2.50;;;;;;;;;;6247481;23;20017;-82
2023/05/28 12:01:54;;;;;;;;;;;;;;;;;;6226361;23;20024;-83
2023/05/28 12:04:24;;;;;;;3.42;2.17;;;;;;;;;;6227047;23;19939;-82
2023/05/28 12:06:52;;;;;;;5.22;2.60;;;;;;;;;;6250403;23;20024;-81
2023/05/28 12:09:20;;;;;;;4.25;2.67;;;;;;;;;;6225708;23;20021;-80
2023/05/28 12:12:02;;;;;;;3.40;2.00;;;;;;;;;;6249288;23;20020;-81
2023/05/28 12:14:32;;;;;;;7.28;2.53;;;;;;;;;;6223303;23;20021;-83
2023/05/28 12:17:09;;;;;;;3.97;2.33;;;;;;;;;;6248376;23;20017;-82
2023/05/28 12:19:37;;;;;;;5.05;2.53;;;;;;;;;;6224924;23;20040;-84
2023/05/28 12:22:13;;;;;;;4.63;2.38;;;;;;;;;;6248652;23;20059;-81
2023/05/28 12:24:47;;;;;;;6.68;2.33;;;;;;;;;;6249093;23;20031;-82
2023/05/28 12:27:14;;;;;;;4.75;2.50;;;;;;;;;;6248180;23;20047;-83
2023/05/28 12:29:42;;;;;;;7.70;2.15;;;;;;;;;;6251004;23;20025;-82
2023/05/28 12:32:09;;;;;;;2.88;2.08;;;;;;;;;;6226518;23;20447;-84
2023/05/28 12:34:36;;;;;;;4.25;2.42;;;;;;;;;;6251456;23;20023;-82
2023/05/28 12:37:04;;;;;;;3.20;1.88;;;;;;;;;;6251596;23;20017;-82
2023/05/28 12:39:31;;;;;;;4.30;2.47;;;;;;;;;;6253453;23;20016;-84
2023/05/28 12:41:59;;;;;;;5.05;2.22;;;;;;;;;;6229012;23;20025;-84
2023/05/28 12:44:26;;;;;;;3.00;2.22;;;;;;;;;;6230370;23;20104;-84
2023/05/28 12:46:53;;;;;;;4.95;2.55;;;;;;;;;;6251619;23;20028;-84
2023/05/28 12:49:21;;;;;;;8.25;2.40;;;;;;;;;;6254593;23;20024;-82
2023/05/28 12:51:48;;;;;;;4.90;2.15;;;;;;;;;;6230450;23;20017;-83
2023/05/28 12:54:15;;;;;;;6.63;2.70;;;;;;;;;;6255692;23;20047;-82
2023/05/28 12:56:43;;;;;;;4.50;2.15;;;;;;;;;;6251872;23;20047;-81
2023/05/28 12:59:20;;;;;;;3.22;1.85;;;;;;;;;;6240588;23;20055;-83
2023/05/28 13:01:48;;;;;;;2.67;2.22;;;;;;;;;;6241797;23;20020;-81
2023/05/28 13:04:15;;;;;;;21.67;6.05;;;;;;;;;;6241510;23;20091;-82
2023/05/28 13:06:43;;;;;;;3.95;2.00;;;;;;;;;;6241284;23;20031;-83
2023/05/28 13:09:14;;;;;;;5.60;2.58;;;;;;;;;;6218406;23;20031;-82
2023/05/28 13:11:42;;;;;;;5.05;2.22;;;;;;;;;;6242268;23;20044;-81
2023/05/28 13:14:09;;;;;;;2.55;2.22;;;;;;;;;;6240699;23;20027;-82
2023/05/28 13:16:37;;;;;;;5.50;2.30;;;;;;;;;;6242212;23;20017;-81
2023/05/28 13:19:04;;;;;;;5.20;2.88;;;;;;;;;;6241299;23;20020;-83
2023/05/28 13:21:32;;;;;;;8.32;2.38;;;;;;;;;;6241226;23;20082;-82
2023/05/28 13:24:01;;;;;;;4.78;2.10;;;;;;;;;;6241341;23;20024;-82
2023/05/28 13:26:29;;;;;;;2.97;2.47;;;;;;;;;;6218150;23;20017;-83
2023/05/28 13:28:57;;;;;;;5.47;2.60;;;;;;;;;;6241425;23;20031;-81
2023/05/28 13:31:24;;;;;;;4.82;2.20;;;;;;;;;;6240154;23;20386;-81
2023/05/28 13:33:52;;;;;;;4.75;2.20;;;;;;;;;;6218398;23;20020;-82
2023/05/28 13:36:19;;;;;;;5.95;2.60;;;;;;;;;;6240582;23;20020;-83
2023/05/28 13:38:49;;;;;;;6.70;2.67;;;;;;;;;;6240368;23;20017;-82
2023/05/28 13:41:17;;;;;;;5.93;2.72;;;;;;;;;;6241283;23;20079;-83
2023/05/28 13:43:45;;;;;;;4.10;2.38;;;;;;;;;;6241172;23;20020;-82
2023/05/28 13:46:12;;;;;;;3.78;2.13;;;;;;;;;;6240572;23;20021;-85
2023/05/28 13:48:40;;;;;;;4.05;2.55;;;;;;;;;;6242075;23;20032;-84
2023/05/28 13:51:07;;;;;;;4.18;2.25;;;;;;;;;;6242474;23;20534;-86
2023/05/28 13:53:35;;;;;;;4.00;2.20;;;;;;;;;;6241199;23;20028;-84
2023/05/28 13:56:02;;;;;;;4.20;2.25;;;;;;;;;;6241303;23;20071;-83
2023/05/28 13:58:30;;;;;;;3.88;2.50;;;;;;;;;;6241273;23;20019;-85
2023/05/28 14:00:57;;;;;;;4.18;2.97;;;;;;;;;;6241832;23;20021;-85
2023/05/28 14:03:24;;;;;;;5.70;2.70;;;;;;;;;;6241683;23;20020;-84
2023/05/28 14:05:53;;;;;;;8.68;3.13;;;;;;;;;;6239481;23;20485;-82
2023/05/28 14:08:21;;;;;;;8.75;2.83;;;;;;;;;;6239425;23;20016;-84
2023/05/28 14:10:49;;;;;;;9.02;3.40;;;;;;;;;;6238892;23;20067;-84
2023/05/28 14:13:16;;;;;;;5.75;2.85;;;;;;;;;;6239258;23;20440;-83
2023/05/28 14:15:43;;;;;;;4.88;2.85;;;;;;;;;;6239334;23;20013;-82
2023/05/28 14:18:14;;;;;;;6.88;2.92;;;;;;;;;;6215454;23;20012;-84
2023/05/28 14:20:41;;;;;;;5.47;2.60;;;;;;;;;;6216974;23;20447;-83
2023/05/28 14:23:09;;;;;;;4.45;2.90;;;;;;;;;;6240145;23;20096;-82
2023/05/28 14:25:36;;;;;;;3.67;2.42;;;;;;;;;;6239229;23;20021;-81
2023/05/28 14:28:03;;;;;;;2.67;2.10;;;;;;;;;;6239684;23;20024;-83
2023/05/28 14:30:38;;;;;;;3.00;2.30;;;;;;;;;;6237238;23;20385;-82
2023/05/28 14:33:06;;;;;;;5.88;2.55;;;;;;;;;;6215836;23;20020;-82
2023/05/28 14:35:33;;;;;;;8.80;2.75;;;;;;;;;;6239164;23;20024;-81
2023/05/28 14:38:00;;;;;;;3.53;2.40;;;;;;;;;;6215501;23;20023;-82
2023/05/28 14:40:27;;;;;;;5.88;2.67;;;;;;;;;;6238673;23;20474;-82
2023/05/28 14:42:55;;;;;;;4.85;3.00;;;;;;;;;;6239368;23;20083;-82
2023/05/28 14:45:22;;;;;;;7.35;2.65;;;;;;;;;;6239223;23;20024;-81
2023/05/28 14:47:49;;;;;;;4.40;2.80;;;;;;;;;;6240757;23;20029;-83
2023/05/28 14:50:17;;;;;;;2.70;2.42;;;;;;;;;;6240702;23;20091;-83
2023/05/28 14:52:44;;;;;;;5.90;2.45;;;;;;;;;;6242999;23;20079;-82
2023/05/28 14:55:11;;;;;;;4.60;2.58;;;;;;;;;;6220820;23;20021;-83
2023/05/28 14:57:40;;;;;;;4.90;2.45;;;;;;;;;;6243394;23;20478;-84
2023/05/28 15:00:10;;;;;;;7.05;2.72;;;;;;;;;;6244860;23;20040;-84
2023/05/28 15:02:37;;;;;;;2.97;2.28;;;;;;;;;;6244816;23;20028;-84
2023/05/28 15:05:05;;;;;;;3.95;2.28;;;;;;;;;;6221543;23;20025;-83
2023/05/28 15:07:32;;;;;;;4.47;2.72;;;;;;;;;;6244955;23;20021;-83
2023/05/28 15:10:00;;;;;;;6.63;3.05;;;;;;;;;;6221152;23;20084;-83
2023/05/28 15:12:27;;;;;;;4.72;2.17;;;;;;;;;;6245204;23;20017;-84
2023/05/28 15:14:54;;;;;;;8.45;3.20;;;;;;;;;;6246948;23;20032;-85
2023/05/28 15:17:22;;;;;;;7.35;2.53;;;;;;;;;;6246909;23;20020;-84
2023/05/28 15:19:49;;;;;;;5.50;2.55;;;;;;;;;;6246688;23;20048;-85
2023/05/28 15:22:17;;;;;;;4.70;2.50;;;;;;;;;;6246510;23;20104;-83
2023/05/28 15:24:47;;;;;;;4.63;2.30;;;;;;;;;;6247564;23;20021;-85
2023/05/28 15:27:14;;;;;;;3.63;2.72;;;;;;;;;;6247072;23;20056;-83
2023/05/28 15:29:44;;;;;;;8.00;2.92;;;;;;;;;;6246629;23;20103;-85
2023/05/28 15:32:12;;;;;;;3.83;2.53;;;;;;;;;;6247567;23;20017;-84
2023/05/28 15:34:39;;;;;;;3.53;2.22;;;;;;;;;;6248970;23;20017;-83
2023/05/28 15:37:07;;;;;;;7.20;2.60;;;;;;;;;;6247310;23;20020;-85
2023/05/28 15:39:34;;;;;;;4.07;2.40;;;;;;;;;;6246218;23;20365;-84
2023/05/28 15:42:05;;;;;;;5.43;2.80;;;;;;;;;;6244667;23;20021;-83
2023/05/28 15:44:34;;;;;;;9.30;2.40;;;;;;;;;;6245305;23;20059;-83
2023/05/28 15:47:02;;;;;;;6.07;2.35;;;;;;;;;;6245597;23;20025;-86
2023/05/28 15:49:29;;;;;;;8.45;2.75;;;;;;;;;;6246541;23;20031;-83
2023/05/28 15:52:00;;;;;;;8.32;3.03;;;;;;;;;;6249934;23;20048;-84
2023/05/28 15:54:27;;;;;;;4.57;2.72;;;;;;;;;;6250829;23;20017;-85
2023/05/28 15:56:55;;;;;;;3.47;2.67;;;;;;;;;;6247575;23;20071;-85
2023/05/28 15:59:22;;;;;;;4.63;2.55;;;;;;;;;;6246336;23;20023;-85